Time;durP1;ratioP1;P1;durP2;ratioP2;P2;SDS_P1;SDS_P2;PMS_P1;PMS_P2;Temp;Humidity;BMP_temperature;BMP_pressure;BME280_temperature;BME280_humidity;BME280_pressure;Samples;Min_cycle;Max_cycle;Signal;HPM_P1;HPM_P2
2022/10/13 00:01:57;;;;;;;26.33;19.00;;;;;;;7.76;98.93;101031.75;2823934;81;21023;-86
2022/10/13 00:05:58;;;;;;;31.62;18.60;;;;;;;7.72;99.79;101024.45;2857922;81;21016;-87
2022/10/13 00:09:59;;;;;;;28.85;18.87;;;;;;;7.74;99.10;101019.08;2841592;81;21078;-86
2022/10/13 00:14:02;;;;;;;26.75;18.57;;;;;;;7.71;98.52;101016.13;2832256;82;21042;-86
2022/10/13 00:18:04;;;;;;;29.75;19.02;;;;;;;7.72;98.44;101015.67;2859408;82;20986;-87
2022/10/13 00:22:05;;;;;;;21.48;18.02;;;;;;;7.76;98.29;101024.27;2850954;81;21026;-87
2022/10/13 00:26:10;;;;;;;37.83;19.35;;;;;;;7.71;98.25;101012.16;2850837;81;21057;-87
2022/10/13 00:30:11;;;;;;;37.28;21.12;;;;;;;7.70;98.18;101015.75;2794202;81;21042;-87
2022/10/13 00:34:12;;;;;;;38.17;22.42;;;;;;;7.65;98.52;101016.95;2865542;82;21665;-87
2022/10/13 00:38:16;;;;;;;33.88;21.97;;;;;;;7.62;98.66;101006.53;2852218;82;21596;-87
2022/10/13 00:42:17;;;;;;;33.55;22.82;;;;;;;7.49;99.94;101011.23;2855653;82;21012;-87
2022/10/13 00:46:20;;;;;;;37.45;22.42;;;;;;;7.44;100.00;101004.00;2844982;81;21023;-87
2022/10/13 00:50:36;;;;;;;32.25;19.77;;;;;;;7.51;100.00;101001.86;2856438;81;21034;-87
2022/10/13 00:54:37;;;;;;;31.90;20.68;;;;;;;7.52;99.85;101000.92;2838837;82;21130;-87
2022/10/13 00:58:39;;;;;;;34.92;21.02;;;;;;;7.50;99.99;101003.67;2844100;81;21062;-86
2022/10/13 01:02:40;;;;;;;50.63;20.50;;;;;;;7.56;99.77;101003.77;2852228;82;21553;-87
2022/10/13 01:06:42;;;;;;;43.48;25.40;;;;;;;7.55;99.08;101004.25;2861932;82;21584;-86
2022/10/13 01:11:00;;;;;;;33.15;26.45;;;;;;;7.51;98.92;101004.52;2849243;81;21624;-86
2022/10/13 01:15:10;;;;;;;45.10;30.70;;;;;;;7.47;98.76;100993.72;2854083;82;21070;-86
2022/10/13 01:19:56;;;;;;;44.30;28.50;;;;;;;7.40;98.99;100996.73;2828179;82;21115;-86
2022/10/13 01:24:18;;;;;;;50.33;27.95;;;;;;;7.39;98.66;100994.16;2846392;82;21048;-86
2022/10/13 01:28:34;;;;;;;40.00;25.43;;;;;;;7.26;99.21;100997.49;2855525;81;21585;-87
2022/10/13 01:32:57;;;;;;;33.40;23.42;;;;;;;7.13;100.00;100988.56;2852453;82;21020;-86
2022/10/13 01:37:04;;;;;;;28.75;23.27;;;;;;;7.10;100.00;100978.16;2863520;82;21012;-86
2022/10/13 01:41:25;;;;;;;38.17;24.00;;;;;;;7.10;100.00;100975.02;2811651;81;21042;-86
2022/10/13 01:45:35;;;;;;;27.85;21.37;;;;;;;7.12;100.00;100970.98;2813836;83;21082;-86
2022/10/13 01:49:38;;;;;;;36.08;23.00;;;;;;;7.08;100.00;100965.48;2836938;82;21050;-86
2022/10/13 01:53:40;;;;;;;29.50;20.88;;;;;;;7.08;100.00;100961.52;2863608;81;21080;-86
2022/10/13 01:57:44;;;;;;;40.15;23.95;;;;;;;7.03;100.00;100957.80;2854498;81;21011;-86
2022/10/13 02:02:03;;;;;;;40.33;25.50;;;;;;;6.72;100.00;100956.84;2854521;82;21102;-86
2022/10/13 02:06:33;;;;;;;36.15;26.07;;;;;;;6.56;100.00;100952.39;2845976;82;21075;-87
2022/10/13 02:10:49;;;;;;;33.83;24.82;;;;;;;6.62;100.00;100953.02;2849174;82;21039;-87
2022/10/13 02:14:52;;;;;;;36.15;24.57;;;;;;;6.75;100.00;100947.42;2858492;81;20980;-87
2022/10/13 02:18:56;;;;;;;36.93;26.20;;;;;;;6.86;100.00;100942.86;2851573;82;21031;-86
2022/10/13 02:23:02;;;;;;;30.32;22.25;;;;;;;6.90;100.00;100943.09;2812876;82;21098;-87
2022/10/13 02:27:06;;;;;;;35.13;21.55;;;;;;;6.69;100.00;100935.42;2851320;81;21020;-87
2022/10/13 02:31:08;;;;;;;31.57;24.35;;;;;;;6.65;100.00;100938.31;2857697;82;21062;-86
2022/10/13 02:35:09;;;;;;;33.28;22.70;;;;;;;6.69;100.00;100941.16;2862630;82;21019;-86
2022/10/13 02:39:10;;;;;;;32.67;23.07;;;;;;;6.68;100.00;100942.09;2844122;82;21091;-87
2022/10/13 02:43:11;;;;;;;31.35;21.73;;;;;;;6.74;100.00;100934.30;2851674;81;21130;-86
2022/10/13 02:47:13;;;;;;;33.48;21.05;;;;;;;6.79;100.00;100930.47;2864454;80;21074;-86
2022/10/13 02:51:14;;;;;;;37.45;21.95;;;;;;;6.81;100.00;100931.69;2869648;80;21079;-86
2022/10/13 02:55:15;;;;;;;30.35;21.75;;;;;;;6.76;100.00;100933.75;2815884;82;21035;-86
2022/10/13 02:59:17;;;;;;;31.82;20.40;;;;;;;6.71;100.00;100940.15;2846720;82;20996;-88
2022/10/13 03:03:18;;;;;;;44.58;22.32;;;;;;;6.73;100.00;100927.31;2804952;82;21024;-87
2022/10/13 03:07:19;;;;;;;29.40;21.15;;;;;;;6.51;100.00;100925.37;2846129;81;21062;-87
2022/10/13 03:11:20;;;;;;;28.07;19.48;;;;;;;6.29;100.00;100926.53;2846092;81;21074;-88
2022/10/13 03:15:22;;;;;;;35.15;23.07;;;;;;;6.37;100.00;100931.41;2771832;82;21038;-86
2022/10/13 03:19:23;;;;;;;33.95;21.65;;;;;;;6.34;100.00;100940.83;2848558;82;21043;-86
2022/10/13 03:23:25;;;;;;;28.52;20.52;;;;;;;6.07;100.00;100941.34;2858251;81;21071;-86
2022/10/13 03:27:26;;;;;;;31.40;21.45;;;;;;;6.22;100.00;100937.51;2870217;82;21015;-86
2022/10/13 03:31:28;;;;;;;32.25;23.27;;;;;;;6.32;100.00;100935.23;2851323;82;21079;-86
2022/10/13 03:35:29;;;;;;;31.65;23.05;;;;;;;6.17;100.00;100936.91;2854843;81;21590;-86
2022/10/13 03:39:31;;;;;;;34.33;22.02;;;;;;;6.12;100.00;100943.75;2842186;82;21700;-86
2022/10/13 03:43:32;;;;;;;34.08;21.82;;;;;;;5.90;100.00;100940.04;2864546;81;21039;-86
2022/10/13 03:47:36;;;;;;;35.08;24.70;;;;;;;5.89;100.00;100929.93;2850965;81;21011;-86
2022/10/13 03:51:38;;;;;;;31.40;23.40;;;;;;;5.98;100.00;100932.56;2862056;82;21583;-86
2022/10/13 03:55:39;;;;;;;31.25;22.37;;;;;;;6.06;100.00;100927.75;2857349;82;21126;-86
2022/10/13 03:59:41;;;;;;;38.33;23.77;;;;;;;6.14;100.00;100926.89;2822962;82;21075;-86
2022/10/13 04:03:42;;;;;;;30.65;21.75;;;;;;;6.20;100.00;100915.60;2855239;81;21026;-85
2022/10/13 04:07:43;;;;;;;34.55;22.85;;;;;;;6.24;100.00;100921.10;2846561;81;21561;-86
2022/10/13 04:11:44;;;;;;;38.23;26.50;;;;;;;6.24;100.00;100927.70;2825323;82;21558;-86
2022/10/13 04:15:45;;;;;;;31.10;23.12;;;;;;;6.24;100.00;100932.98;2837136;82;21035;-86
2022/10/13 04:19:46;;;;;;;33.75;23.40;;;;;;;6.23;100.00;100930.83;2821289;82;21051;-85
2022/10/13 04:23:47;;;;;;;40.65;24.98;;;;;;;6.16;100.00;100919.35;2754823;82;21065;-85
2022/10/13 04:27:49;;;;;;;38.88;24.82;;;;;;;6.12;100.00;100918.65;2837002;82;21023;-85
2022/10/13 04:31:50;;;;;;;37.40;24.00;;;;;;;6.10;100.00;100921.39;2852729;82;21036;-86
2022/10/13 04:35:51;;;;;;;33.20;24.23;;;;;;;6.08;100.00;100919.27;2850071;81;21035;-85
2022/10/13 04:39:52;;;;;;;35.00;25.40;;;;;;;6.09;100.00;100922.33;2774172;82;21042;-86
2022/10/13 04:43:54;;;;;;;42.25;24.80;;;;;;;6.08;100.00;100930.32;2854126;82;21095;-85
2022/10/13 04:47:55;;;;;;;31.07;23.22;;;;;;;6.11;100.00;100928.83;2863847;82;21117;-85
2022/10/13 04:51:57;;;;;;;37.88;25.25;;;;;;;6.13;100.00;100933.56;2844700;81;21011;-85
2022/10/13 04:56:04;;;;;;;34.55;21.82;;;;;;;6.11;100.00;100921.78;2867633;82;21043;-85
2022/10/13 05:00:07;;;;;;;38.80;25.35;;;;;;;6.07;100.00;100923.33;2834816;82;21059;-85
2022/10/13 05:04:09;;;;;;;32.38;21.77;;;;;;;6.03;100.00;100909.91;2852323;81;21645;-85
2022/10/13 05:08:10;;;;;;;36.30;23.62;;;;;;;6.05;100.00;100912.83;2846071;82;21024;-85
2022/10/13 05:12:11;;;;;;;33.50;25.95;;;;;;;6.04;100.00;100905.02;2823930;82;20991;-85
2022/10/13 05:16:15;;;;;;;37.45;24.07;;;;;;;6.02;100.00;100897.16;2843567;82;21055;-85
2022/10/13 05:20:17;;;;;;;38.05;24.32;;;;;;;6.01;100.00;100886.20;2846303;82;21141;-85
2022/10/13 05:24:29;;;;;;;40.17;24.18;;;;;;;6.02;100.00;100890.55;2857659;81;21079;-85
2022/10/13 05:28:21;;;;;;;33.15;23.83;;;;;;;6.03;100.00;100893.58;2848200;82;21551;-85
2022/10/13 05:32:22;;;;;;;39.92;24.55;;;;;;;6.03;100.00;100890.09;2850978;82;21573;-85
2022/10/13 05:36:33;;;;;;;43.98;27.90;;;;;;;6.08;100.00;100891.53;2847678;82;21086;-85
2022/10/13 05:40:34;;;;;;;44.85;25.48;;;;;;;6.14;100.00;100886.40;2846255;81;21028;-85
2022/10/13 05:44:36;;;;;;;36.17;26.27;;;;;;;6.14;100.00;100890.36;2853522;81;21075;-86
2022/10/13 05:48:37;;;;;;;40.83;24.45;;;;;;;6.21;100.00;100889.11;2845338;81;21086;-85
2022/10/13 05:52:40;;;;;;;40.65;28.50;;;;;;;6.26;100.00;100883.56;2802686;81;21501;-86
2022/10/13 05:56:47;;;;;;;33.78;24.18;;;;;;;6.29;100.00;100888.22;2856175;82;21070;-85
2022/10/13 06:00:48;;;;;;;38.38;25.43;;;;;;;6.43;100.00;100880.85;2843232;82;21547;-85
2022/10/13 06:04:54;;;;;;;38.75;25.08;;;;;;;6.51;100.00;100891.48;2850526;82;21115;-86
2022/10/13 06:08:55;;;;;;;40.63;28.17;;;;;;;6.68;100.00;100883.48;2857847;81;21050;-85
2022/10/13 06:12:56;;;;;;;40.63;26.97;;;;;;;6.84;100.00;100877.30;2853416;82;21016;-85
2022/10/13 06:16:57;;;;;;;51.83;40.80;;;;;;;6.97;100.00;100878.31;2794881;82;20975;-85
2022/10/13 06:20:59;;;;;;;32.13;23.83;;;;;;;7.10;100.00;100874.98;2849911;82;21074;-85
2022/10/13 06:25:00;;;;;;;29.35;24.75;;;;;;;7.09;100.00;100871.95;2847001;82;20995;-85
2022/10/13 06:29:02;;;;;;;31.68;24.20;;;;;;;7.29;100.00;100870.77;2847507;82;21015;-85
2022/10/13 06:33:04;;;;;;;43.83;23.90;;;;;;;7.53;100.00;100870.25;2830620;81;21029;-85
2022/10/13 06:37:05;;;;;;;28.65;18.52;;;;;;;7.72;100.00;100866.88;2852176;81;21008;-85
2022/10/13 06:41:07;;;;;;;32.45;22.15;;;;;;;7.98;100.00;100871.53;2861632;82;21041;-85
2022/10/13 06:45:08;;;;;;;35.52;22.05;;;;;;;8.33;100.00;100871.59;2874605;81;21047;-85
2022/10/13 06:49:10;;;;;;;34.50;23.00;;;;;;;8.19;100.00;100864.52;2818953;82;21019;-85
2022/10/13 06:53:11;;;;;;;30.25;20.12;;;;;;;8.32;100.00;100864.14;2843820;81;21007;-85
2022/10/13 06:57:12;;;;;;;35.60;21.77;;;;;;;8.42;100.00;100865.23;2852405;81;21030;-85
2022/10/13 07:01:13;;;;;;;30.15;19.80;;;;;;;8.55;100.00;100861.84;2853541;81;21046;-85
2022/10/13 07:05:15;;;;;;;31.93;19.70;;;;;;;8.76;100.00;100873.34;2850929;81;21066;-85
2022/10/13 07:09:16;;;;;;;29.07;20.52;;;;;;;8.91;100.00;100868.37;2871184;82;21145;-85
2022/10/13 07:13:17;;;;;;;26.30;21.33;;;;;;;9.14;100.00;100868.19;2854643;81;21079;-85
2022/10/13 07:17:18;;;;;;;25.45;19.12;;;;;;;9.32;100.00;100864.39;2870983;81;21110;-85
2022/10/13 07:21:19;;;;;;;32.63;20.80;;;;;;;9.56;98.80;100857.89;2849415;82;21054;-85
2022/10/13 07:25:20;;;;;;;34.53;21.77;;;;;;;9.77;97.71;100858.20;2861773;82;21074;-85
2022/10/13 07:29:21;;;;;;;24.47;18.10;;;;;;;9.92;97.02;100851.45;2842389;82;21022;-85
2022/10/13 07:33:22;;;;;;;28.27;20.12;;;;;;;10.08;97.90;100844.56;2850590;81;21018;-85
2022/10/13 07:37:25;;;;;;;34.60;22.70;;;;;;;10.38;98.39;100834.03;2838163;82;21426;-85
2022/10/13 07:41:26;;;;;;;46.90;33.70;;;;;;;10.65;96.98;100832.53;2787446;82;21057;-85
2022/10/13 07:45:27;;;;;;;56.30;33.80;;;;;;;10.86;95.34;100835.40;2844498;81;21065;-85
2022/10/13 07:49:28;;;;;;;30.35;23.47;;;;;;;11.08;93.87;100831.62;2857206;82;21067;-85
2022/10/13 07:53:29;;;;;;;32.35;21.50;;;;;;;11.19;94.25;100824.98;2778402;83;21055;-85
2022/10/13 07:57:31;;;;;;;40.03;26.20;;;;;;;11.19;94.38;100823.66;2774009;83;21581;-85
2022/10/13 08:01:32;;;;;;;41.08;31.37;;;;;;;11.35;95.49;100817.16;2732716;85;21572;-85
2022/10/13 08:05:38;;;;;;;30.23;20.55;;;;;;;11.68;93.92;100814.19;2714002;85;21575;-85
2022/10/13 08:09:39;;;;;;;29.87;21.13;;;;;;;11.79;92.81;100818.67;2851138;82;21610;-85
2022/10/13 08:13:40;;;;;;;30.85;19.30;;;;;;;12.03;92.21;100812.39;2852399;82;21000;-85
2022/10/13 08:17:41;;;;;;;30.60;20.43;;;;;;;12.27;91.95;100816.25;2864188;82;21097;-85
2022/10/13 08:21:45;;;;;;;32.40;20.00;;;;;;;12.48;89.94;100815.48;2781003;82;21086;-85
2022/10/13 08:25:46;;;;;;;29.20;20.92;;;;;;;12.80;88.63;100814.66;2854019;81;21546;-85
2022/10/13 08:29:47;;;;;;;35.33;22.50;;;;;;;12.93;87.85;100805.97;2835331;82;21525;-85
2022/10/13 08:33:51;;;;;;;30.08;19.12;;;;;;;13.01;88.93;100802.66;2770102;82;30817;-85
2022/10/13 08:37:52;;;;;;;26.68;20.12;;;;;;;13.17;87.96;100794.69;2855898;81;21106;-85
2022/10/13 08:41:56;;;;;;;28.30;18.92;;;;;;;13.23;87.91;100797.69;2842656;81;21090;-85
2022/10/13 08:46:00;;;;;;;28.52;18.00;;;;;;;13.31;89.51;100795.70;2845596;81;21010;-85
2022/10/13 08:50:12;;;;;;;27.73;19.82;;;;;;;13.54;88.21;100796.41;2839234;82;21038;-85
2022/10/13 08:54:15;;;;;;;28.52;20.75;;;;;;;13.70;87.85;100797.76;2844976;81;21062;-86
2022/10/13 08:58:30;;;;;;;26.35;18.92;;;;;;;13.88;87.78;100794.45;2839284;82;21587;-85
2022/10/13 09:02:31;;;;;;;29.60;18.90;;;;;;;14.08;87.25;100792.70;2836907;81;21049;-86
2022/10/13 09:06:47;;;;;;;22.20;16.35;;;;;;;14.19;87.09;100794.42;2769967;82;21007;-85
2022/10/13 09:10:50;;;;;;;21.52;15.78;;;;;;;14.40;84.33;100791.16;2852859;82;21066;-85
2022/10/13 09:15:10;;;;;;;21.52;15.40;;;;;;;14.55;85.00;100784.06;2821407;82;21038;-85
2022/10/13 09:19:28;;;;;;;23.22;16.60;;;;;;;14.72;85.02;100783.88;2848557;81;21062;-85
2022/10/13 09:23:29;;;;;;;33.20;16.82;;;;;;;14.77;84.68;100782.13;2857530;81;21464;-85
2022/10/13 09:27:48;;;;;;;24.82;15.10;;;;;;;15.09;83.61;100776.94;2858912;82;21032;-85
2022/10/13 09:31:50;;;;;;;22.80;15.40;;;;;;;15.19;83.32;100775.58;2857591;82;21024;-86
2022/10/13 09:36:05;;;;;;;21.20;14.38;;;;;;;15.46;81.38;100773.98;2855639;81;21072;-86
2022/10/13 09:40:21;;;;;;;18.25;11.38;;;;;;;15.58;80.92;100772.79;2845683;82;21667;-86
2022/10/13 09:44:30;;;;;;;19.47;12.70;;;;;;;15.67;82.05;100773.27;2836052;81;20995;-86
2022/10/13 09:48:35;;;;;;;24.65;14.10;;;;;;;15.95;80.97;100776.49;2854046;81;21102;-85
2022/10/13 09:52:37;;;;;;;25.00;15.18;;;;;;;16.15;80.39;100766.99;2851584;82;21566;-85
2022/10/13 09:56:45;;;;;;;17.85;12.63;;;;;;;16.34;80.58;100765.52;2794315;82;21569;-86
2022/10/13 10:00:50;;;;;;;26.87;15.25;;;;;;;16.39;80.67;100771.75;2858441;81;21149;-86
2022/10/13 10:04:53;;;;;;;22.85;11.57;;;;;;;16.40;80.06;100727.80;2841307;82;21078;-86
2022/10/13 10:09:17;;;;;;;18.85;13.30;;;;;;;16.40;80.06;100727.80;2873342;82;21016;-86
2022/10/13 10:13:19;;;;;;;19.27;13.08;;;;;;;16.69;79.57;100749.05;2849325;82;21141;-85
2022/10/13 10:17:43;;;;;;;20.50;12.82;;;;;;;16.89;77.67;100735.44;2860917;82;21052;-85
2022/10/13 10:22:03;;;;;;;18.00;11.83;;;;;;;17.05;76.23;100729.88;2848108;82;21099;-86
2022/10/13 10:26:21;;;;;;;18.87;12.70;;;;;;;17.17;78.45;100720.55;2850409;82;21032;-85
2022/10/13 10:30:22;;;;;;;19.35;13.38;;;;;;;17.18;76.72;100717.35;2848386;81;21024;-85
2022/10/13 10:34:40;;;;;;;19.90;11.05;;;;;;;17.23;77.78;100705.13;2849550;81;21083;-85
2022/10/13 10:38:55;;;;;;;18.23;10.43;;;;;;;17.40;76.02;100703.88;2821785;82;21059;-86
2022/10/13 10:43:28;;;;;;;19.80;11.45;;;;;;;17.50;76.72;100699.72;2863276;82;21087;-86
2022/10/13 10:47:37;;;;;;;18.17;12.23;;;;;;;17.50;75.46;100692.99;2835651;82;21047;-86
2022/10/13 10:51:38;;;;;;;17.70;10.48;;;;;;;17.66;74.25;100690.86;2820591;82;21098;-86
2022/10/13 10:56:03;;;;;;;19.12;11.18;;;;;;;17.62;74.87;100684.98;2849725;81;21066;-85
2022/10/13 11:00:09;;;;;;;21.87;11.60;;;;;;;17.74;74.08;100684.67;2849097;81;21126;-86
2022/10/13 11:04:36;;;;;;;16.02;11.28;;;;;;;17.69;74.47;100678.45;2842206;81;21040;-86
2022/10/13 11:08:40;;;;;;;18.50;11.15;;;;;;;17.81;74.97;100669.06;2845996;81;21111;-86
2022/10/13 11:12:57;;;;;;;12.82;9.68;;;;;;;17.89;74.14;100661.52;2808887;82;21010;-85
2022/10/13 11:17:09;;;;;;;21.23;11.43;;;;;;;17.94;73.22;100649.73;2851920;81;21034;-86
2022/10/13 11:21:10;;;;;;;24.60;10.90;;;;;;;18.12;73.01;100641.57;2844247;82;21031;-86
2022/10/13 11:25:40;;;;;;;17.85;10.58;;;;;;;18.24;71.93;100633.15;2856991;82;21054;-86
2022/10/13 11:29:53;;;;;;;17.00;10.18;;;;;;;18.30;73.82;100629.80;2844529;81;21121;-86
2022/10/13 11:33:59;;;;;;;15.15;10.30;;;;;;;18.39;71.42;100618.53;2846869;82;21035;-86
2022/10/13 11:38:06;;;;;;;15.72;9.40;;;;;;;18.39;71.99;100616.66;2875059;82;21036;-86
2022/10/13 11:42:40;;;;;;;13.03;8.55;;;;;;;18.43;71.36;100616.31;2844821;82;21113;-86
2022/10/13 11:47:25;;;;;;;13.43;9.33;;;;;;;18.38;70.25;100608.77;2717470;86;21559;-86
2022/10/13 11:52:07;;;;;;;15.80;8.55;;;;;;;18.60;71.58;100604.52;2746794;85;21079;-86
2022/10/13 11:56:33;;;;;;;12.35;8.03;;;;;;;18.62;71.13;100600.31;2733742;84;21061;-86
2022/10/13 12:00:35;;;;;;;21.27;8.83;;;;;;;18.64;68.75;100595.07;2740083;85;21094;-86
2022/10/13 12:04:39;;;;;;;12.30;7.35;;;;;;;18.56;67.87;100589.71;2740583;86;21126;-86
2022/10/13 12:08:47;;;;;;;15.40;7.62;;;;;;;18.69;69.19;100594.07;2753654;84;21022;-86
2022/10/13 12:12:49;;;;;;;14.83;9.33;;;;;;;18.74;70.30;100588.66;2764072;84;21081;-85
2022/10/13 12:16:56;;;;;;;10.55;7.10;;;;;;;18.77;68.64;100586.97;2802528;82;20988;-85
2022/10/13 12:21:02;;;;;;;18.00;6.83;;;;;;;18.90;66.14;100587.28;2842099;82;21046;-85
2022/10/13 12:25:06;;;;;;;10.68;6.03;;;;;;;18.90;64.43;100581.89;2855306;81;21022;-86
2022/10/13 12:29:13;;;;;;;7.42;5.53;;;;;;;18.73;63.77;100574.34;2857268;82;21038;-86
2022/10/13 12:33:29;;;;;;;12.07;6.30;;;;;;;18.87;63.86;100576.84;2847675;81;21589;-85
2022/10/13 12:37:32;;;;;;;;;;;;;;;18.90;64.61;100576.98;2845105;82;21064;-86
2022/10/13 12:41:41;;;;;;;12.98;7.40;;;;;;;18.96;63.92;100569.55;2846043;81;20162;-85
2022/10/13 12:45:43;;;;;;;11.63;5.72;;;;;;;19.09;64.58;100563.13;2860413;81;21624;-85
2022/10/13 12:49:44;;;;;;;10.63;5.47;;;;;;;19.20;63.12;100567.30;2816285;82;21102;-85
2022/10/13 12:53:47;;;;;;;11.25;5.67;;;;;;;19.27;62.96;100555.30;2847283;82;21051;-85
2022/10/13 12:57:52;;;;;;;12.20;5.62;;;;;;;19.28;63.96;100558.85;2844443;81;21087;-86
2022/10/13 13:02:00;;;;;;;8.65;5.03;;;;;;;19.34;62.34;100550.87;2852915;82;21110;-86
2022/10/13 13:06:19;;;;;;;15.50;5.95;;;;;;;19.38;62.00;100544.12;2840294;82;21083;-85
2022/10/13 13:10:20;;;;;;;12.05;5.85;;;;;;;19.36;61.64;100543.96;2847386;82;21067;-85
2022/10/13 13:14:43;;;;;;;9.83;5.30;;;;;;;19.37;61.82;100537.55;2850698;82;21030;-85
2022/10/13 13:18:45;;;;;;;9.70;5.70;;;;;;;19.43;61.06;100519.29;2816578;81;21018;-86
2022/10/13 13:22:46;;;;;;;6.87;4.75;;;;;;;19.50;61.68;100527.02;2851187;81;21059;-86
2022/10/13 13:26:48;;;;;;;8.68;4.87;;;;;;;19.54;60.41;100524.78;2853525;82;21032;-86
2022/10/13 13:30:49;;;;;;;7.33;4.58;;;;;;;19.56;60.81;100520.08;2854322;81;21641;-86
2022/10/13 13:34:51;;;;;;;7.10;5.42;;;;;;;19.62;60.18;100518.49;2812823;82;21091;-86
2022/10/13 13:38:53;;;;;;;16.37;9.95;;;;;;;19.63;59.78;100510.23;2810920;80;21027;-85
2022/10/13 13:42:54;;;;;;;22.62;14.95;;;;;;;19.66;59.87;100513.09;2795250;82;21095;-86
2022/10/13 13:46:56;;;;;;;20.65;12.55;;;;;;;19.69;61.18;100515.42;2865376;81;21078;-84
2022/10/13 13:50:57;;;;;;;26.82;18.45;;;;;;;19.72;60.08;100511.01;2753610;82;21015;-84
2022/10/13 13:54:58;;;;;;;14.03;6.35;;;;;;;19.77;60.31;100506.42;2778487;81;21557;-85
2022/10/13 13:58:59;;;;;;;13.93;8.50;;;;;;;19.77;59.65;100501.85;2845428;81;21062;-85
2022/10/13 14:03:00;;;;;;;22.70;15.90;;;;;;;19.71;60.62;100495.84;2857403;82;21030;-85
2022/10/13 14:07:02;;;;;;;10.50;8.45;;;;;;;19.70;61.24;100495.52;2854495;81;20964;-84
2022/10/13 14:11:07;;;;;;;18.52;11.53;;;;;;;19.76;61.71;100492.61;2843226;82;21035;-84
2022/10/13 14:15:09;;;;;;;29.35;15.55;;;;;;;19.71;61.37;100495.84;2808029;81;21051;-84
2022/10/13 14:19:10;;;;;;;17.48;10.58;;;;;;;19.61;61.53;100496.58;2835465;82;21026;-85
2022/10/13 14:23:11;;;;;;;7.72;4.75;;;;;;;19.57;61.37;100485.33;2838666;82;21085;-85
2022/10/13 14:27:13;;;;;;;15.32;7.12;;;;;;;19.55;61.23;100493.59;2850779;81;21519;-84
2022/10/13 14:31:14;;;;;;;12.70;7.62;;;;;;;19.50;62.11;100490.60;2853343;81;20995;-84
2022/10/13 14:35:16;;;;;;;18.15;9.13;;;;;;;19.39;62.14;100481.56;2866575;82;21507;-85
2022/10/13 14:39:18;;;;;;;11.35;5.35;;;;;;;19.36;62.63;100479.23;2851966;82;20999;-85
2022/10/13 14:43:19;;;;;;;11.88;7.40;;;;;;;19.31;63.08;100478.41;2863858;82;20984;-84
2022/10/13 14:47:20;;;;;;;7.75;5.40;;;;;;;19.16;62.98;100475.64;2848952;81;21066;-84
2022/10/13 14:51:21;;;;;;;9.08;6.33;;;;;;;19.16;63.21;100481.04;2860742;81;21023;-85
2022/10/13 14:55:22;;;;;;;11.93;5.90;;;;;;;19.13;63.50;100481.40;2820225;82;21046;-84
2022/10/13 14:59:23;;;;;;;12.20;6.03;;;;;;;18.91;64.51;100477.60;2846586;82;21012;-84
2022/10/13 15:03:26;;;;;;;15.55;7.47;;;;;;;18.79;64.83;100481.20;2801001;82;21281;-85
2022/10/13 15:07:27;;;;;;;23.55;10.60;;;;;;;18.64;66.33;100480.57;2817298;82;21132;-85
2022/10/13 15:11:28;;;;;;;18.50;11.48;;;;;;;18.38;68.53;100478.98;2852480;82;21035;-84
2022/10/13 15:15:29;;;;;;;14.07;9.85;;;;;;;18.08;69.91;100476.52;2837897;82;21058;-85
2022/10/13 15:19:31;;;;;;;20.27;13.58;;;;;;;17.81;71.76;100478.03;2846451;81;21070;-85
2022/10/13 15:23:32;;;;;;;22.13;14.55;;;;;;;17.64;73.65;100475.00;2848031;82;20992;-85
2022/10/13 15:27:33;;;;;;;20.00;15.48;;;;;;;17.47;74.28;100476.33;2855511;81;21019;-85
2022/10/13 15:31:35;;;;;;;28.20;19.55;;;;;;;17.40;73.19;100469.45;2845878;81;22365;-85
2022/10/13 15:35:36;;;;;;;30.05;15.48;;;;;;;17.37;73.53;100465.73;2846763;82;21044;-85
2022/10/13 15:39:37;;;;;;;25.57;12.82;;;;;;;17.39;74.18;100462.89;2852056;82;20967;-85
2022/10/13 15:43:39;;;;;;;27.48;13.00;;;;;;;17.34;73.95;100456.66;2850489;82;21023;-85
2022/10/13 15:47:40;;;;;;;19.23;10.95;;;;;;;17.35;73.29;100459.68;2843912;82;21039;-85
2022/10/13 15:51:41;;;;;;;17.62;9.58;;;;;;;17.32;73.40;100453.81;2845203;82;21057;-85
2022/10/13 15:55:42;;;;;;;19.45;10.98;;;;;;;17.19;74.01;100457.81;2855207;81;21118;-85
2022/10/13 15:59:43;;;;;;;20.35;11.28;;;;;;;17.06;74.40;100452.06;2796592;83;21051;-85
2022/10/13 16:03:45;;;;;;;21.90;14.15;;;;;;;16.98;75.14;100456.88;2735417;85;21106;-85
2022/10/13 16:07:46;;;;;;;35.88;24.70;;;;;;;16.85;75.66;100464.07;2844758;82;21011;-85
2022/10/13 16:11:47;;;;;;;43.83;27.77;;;;;;;16.70;76.53;100465.20;2841325;82;21085;-86
2022/10/13 16:15:57;;;;;;;36.80;19.65;;;;;;;16.62;76.90;100461.97;2827077;81;21527;-85
2022/10/13 16:19:58;;;;;;;27.98;16.40;;;;;;;16.56;76.84;100458.59;2869430;81;21107;-85
2022/10/13 16:24:00;;;;;;;39.67;19.42;;;;;;;16.47;77.12;100459.55;2845424;81;21039;-85
2022/10/13 16:28:01;;;;;;;34.75;16.32;;;;;;;16.34;77.92;100454.63;2849232;82;21137;-85
2022/10/13 16:32:02;;;;;;;52.95;24.52;;;;;;;16.16;78.95;100456.04;2839345;82;21427;-85
2022/10/13 16:36:06;;;;;;;40.70;23.67;;;;;;;16.02;79.17;100453.44;2784702;81;21048;-86
2022/10/13 16:40:09;;;;;;;56.42;19.48;;;;;;;15.89;79.82;100448.47;2841468;81;21076;-85
2022/10/13 16:44:10;;;;;;;29.42;18.62;;;;;;;15.73;80.20;100445.14;2809257;82;21103;-84
2022/10/13 16:48:11;;;;;;;35.70;21.95;;;;;;;15.62;80.37;100445.71;2852594;80;20983;-84
2022/10/13 16:52:12;;;;;;;37.38;23.87;;;;;;;15.48;81.33;100442.27;2862448;80;21405;-85
2022/10/13 16:56:13;;;;;;;41.42;26.62;;;;;;;15.27;82.50;100445.58;2868562;81;21084;-84
2022/10/13 17:00:15;;;;;;;41.28;26.52;;;;;;;14.99;84.53;100449.66;2833851;82;21001;-84
2022/10/13 17:04:16;;;;;;;34.53;18.65;;;;;;;14.75;85.83;100441.36;2850974;82;21023;-84
2022/10/13 17:08:17;;;;;;;53.30;35.13;;;;;;;14.58;87.60;100446.48;2848060;82;21018;-84
2022/10/13 17:12:18;;;;;;;109.42;68.65;;;;;;;14.46;88.47;100445.84;2698055;84;21464;-84
2022/10/13 17:16:19;;;;;;;142.77;87.35;;;;;;;14.38;88.59;100451.92;2841583;81;20988;-84
2022/10/13 17:20:21;;;;;;;221.93;133.55;;;;;;;14.28;89.45;100447.94;2837873;81;21036;-85
2022/10/13 17:24:22;;;;;;;147.02;94.67;;;;;;;14.20;89.35;100449.66;2854650;82;21033;-85
2022/10/13 17:28:23;;;;;;;97.78;63.92;;;;;;;14.12;89.70;100451.20;2852822;82;21033;-86
2022/10/13 17:32:24;;;;;;;66.00;41.20;;;;;;;14.12;89.31;100449.04;2866921;81;21060;-86
2022/10/13 17:36:30;;;;;;;55.60;37.85;;;;;;;14.09;89.25;100450.67;2793768;82;21546;-86
2022/10/13 17:40:35;;;;;;;56.70;34.58;;;;;;;14.06;89.65;100446.45;2843610;82;21054;-86
2022/10/13 17:44:37;;;;;;;54.95;39.30;;;;;;;14.04;89.47;100451.09;2796175;82;21063;-86
2022/10/13 17:48:38;;;;;;;53.60;34.20;;;;;;;14.03;89.33;100447.22;2811831;81;21543;-86
2022/10/13 17:52:39;;;;;;;44.30;29.23;;;;;;;14.00;89.33;100443.02;2865450;81;21691;-86
2022/10/13 17:56:41;;;;;;;34.85;23.47;;;;;;;13.99;89.47;100448.02;2869059;81;21028;-87
2022/10/13 18:00:42;;;;;;;33.78;22.95;;;;;;;14.02;89.10;100453.08;2867125;80;21003;-89
2022/10/13 18:04:43;;;;;;;33.90;21.70;;;;;;;14.07;89.11;100451.31;2851425;80;21049;-88
2022/10/13 18:08:44;;;;;;;25.70;18.92;;;;;;;14.11;88.73;100450.86;2865117;80;21051;-87
2022/10/13 18:12:46;;;;;;;28.47;17.62;;;;;;;14.19;88.51;100456.00;2871444;81;21031;-87
2022/10/13 18:16:49;;;;;;;20.10;13.85;;;;;;;14.19;89.56;100456.00;2848042;81;21020;-86
2022/10/13 18:20:50;;;;;;;20.60;14.78;;;;;;;14.13;89.97;100459.58;2826632;80;21032;-87
2022/10/13 18:24:51;;;;;;;21.40;14.47;;;;;;;14.07;90.28;100457.49;2850892;80;20992;-86
2022/10/13 18:28:53;;;;;;;27.17;14.65;;;;;;;14.11;90.36;100448.19;2808555;82;21031;-87
2022/10/13 18:32:54;;;;;;;19.32;12.07;;;;;;;14.18;89.90;100447.63;2862688;81;21070;-88
2022/10/13 18:36:57;;;;;;;27.37;12.45;;;;;;;14.20;89.63;100448.32;2861421;82;21045;-86